Apostolos A — 9HKR6 — position and weather

sailwx.info

Track history (hours):
 
Tides and Currents Weather Stations Pressure Air Temp Water Temp Dewpoint Dewpoint Depression Visibility Wind Speed Wind Dir Waves Ship Positions

Apostolos A

Last reported at 2014-Nov-20 11:15 UTC. Time now 2014-Nov-27 20:47 UTC.
Position N 44°44' E 037°47'.

Length 182 m; draft 8.2 m.

Type: Tanker. MMSI: 248594000.

Date/timePositionNaut miles runAvg speedWind from/ knotsBaromVisibWave heightAir tempDewpointWater temp
2014-Nov-20 11:15N 44°44' E 037°47'0 0.0
2014-Nov-20 10:30N 44°44' E 037°47'0 0.0
2014-Nov-20 09:33N 44°44' E 037°47'0 0.0
2014-Nov-20 08:33N 44°44' E 037°47'0 0.0
2014-Nov-20 07:21N 44°44' E 037°47'0 0.0
2014-Nov-20 06:33N 44°44' E 037°47'0 0.0
2014-Nov-20 05:33N 44°44' E 037°47'0 0.0
2014-Nov-19 14:12N 44°44' E 037°47'2 2.5
2014-Nov-19 13:34N 44°43' E 037°49'8 8.3
2014-Nov-19 12:33N 44°35' E 037°52'  
2014-Nov-14 05:06N 44°33' E 037°37'6 9.9
2014-Nov-14 04:32N 44°35' E 037°45'7 7.6
2014-Nov-14 03:33N 44°42' E 037°49'2 0.3
2014-Nov-13 19:22N 44°44' E 037°47'0 0.0
2014-Nov-13 18:28N 44°44' E 037°47'0 0.0
2014-Nov-13 17:10N 44°44' E 037°47'0 0.0
2014-Nov-13 14:31N 44°44' E 037°47'0 0.0
2014-Nov-13 13:31N 44°44' E 037°47'0 0.0
2014-Nov-13 12:31N 44°44' E 037°47'0 0.0
2014-Nov-13 11:31N 44°44' E 037°47'0 0.0
2014-Nov-13 10:31N 44°44' E 037°47'0 0.0
2014-Nov-13 09:31N 44°44' E 037°47'0 0.0
2014-Nov-13 08:31N 44°44' E 037°47'0 0.0
2014-Nov-13 07:31N 44°44' E 037°47'0 0.0
2014-Nov-13 06:10N 44°44' E 037°47'0 0.0
2014-Nov-13 05:31N 44°44' E 037°47'0 0.0
2014-Nov-13 04:31N 44°44' E 037°47'0 0.0
2014-Nov-12 20:33N 44°44' E 037°47'3 3.1
2014-Nov-12 19:33N 44°41' E 037°50'5 4.5
2014-Nov-12 18:33N 44°37' E 037°51'  
Track history (hours):
 
Tides and Currents Weather Stations Pressure Air Temp Water Temp Dewpoint Dewpoint Depression Visibility Wind Speed Wind Dir Waves Ship Positions

Apostolos A

Last reported at 2014-Nov-20 11:15 UTC. Time now 2014-Nov-27 20:47 UTC.
Position N 44°44' E 037°47'.

Length 182 m; draft 8.2 m.

Type: Tanker. MMSI: 248594000.

Date/timePositionNaut miles runAvg speedWind from/ knotsBaromVisibWave heightAir tempDewpointWater temp
2014-Nov-20 11:15N 44°44' E 037°47'0 0.0
2014-Nov-20 10:30N 44°44' E 037°47'0 0.0
2014-Nov-20 09:33N 44°44' E 037°47'0 0.0
2014-Nov-20 08:33N 44°44' E 037°47'0 0.0
2014-Nov-20 07:21N 44°44' E 037°47'0 0.0
2014-Nov-20 06:33N 44°44' E 037°47'0 0.0
2014-Nov-20 05:33N 44°44' E 037°47'0 0.0
2014-Nov-19 14:12N 44°44' E 037°47'2 2.5
2014-Nov-19 13:34N 44°43' E 037°49'8 8.3
2014-Nov-19 12:33N 44°35' E 037°52'  
2014-Nov-14 05:06N 44°33' E 037°37'6 9.9
2014-Nov-14 04:32N 44°35' E 037°45'7 7.6
2014-Nov-14 03:33N 44°42' E 037°49'2 0.3
2014-Nov-13 19:22N 44°44' E 037°47'0 0.0
2014-Nov-13 18:28N 44°44' E 037°47'0 0.0
2014-Nov-13 17:10N 44°44' E 037°47'0 0.0
2014-Nov-13 14:31N 44°44' E 037°47'0 0.0
2014-Nov-13 13:31N 44°44' E 037°47'0 0.0
2014-Nov-13 12:31N 44°44' E 037°47'0 0.0
2014-Nov-13 11:31N 44°44' E 037°47'0 0.0
2014-Nov-13 10:31N 44°44' E 037°47'0 0.0
2014-Nov-13 09:31N 44°44' E 037°47'0 0.0
2014-Nov-13 08:31N 44°44' E 037°47'0 0.0
2014-Nov-13 07:31N 44°44' E 037°47'0 0.0
2014-Nov-13 06:10N 44°44' E 037°47'0 0.0
2014-Nov-13 05:31N 44°44' E 037°47'0 0.0
2014-Nov-13 04:31N 44°44' E 037°47'0 0.0
2014-Nov-12 20:33N 44°44' E 037°47'3 3.1
2014-Nov-12 19:33N 44°41' E 037°50'5 4.5
2014-Nov-12 18:33N 44°37' E 037°51'  

Dump ship's entire track history